Latest Weather Observations for Blackall

IDQ60801

Issued at 2:35 pm EST Sunday 26 October 2014 (issued every 30 minutes, with the page automatically refreshed every 10 minutes)

About weather observations | Map of weather stations | Latest weather observations for QLD | Other Formats
Station Details ID: 036034 Name: BLACKALL AIRPORT Lat: -24.43 Lon: 145.43 Height: 281.3 m
Data from the previous 72 hours. | See also: Recent months at Blackall
Date/Time
EST
Temp
°C
App
Temp
°C
Dew
Point
Rel
Hum
%
Delta-T
°C
Wind Press
QNH
hPa
Press
MSL
hPa
Rain
since 9 am
mm
Dir
 
Spd
km/h
Gust
km/h
Spd
kts
Gust
kts
26/02:30pm 39.1 34.9 1.9 10 19.6 SW 13 17 7 9 1012.4 1010.9 0.0
26/02:00pm 38.9 34.7 1.8 10 19.5 WSW 13 20 7 11 1012.9 1011.5 0.0
26/01:30pm 37.7 33.2 2.2 11 18.7 ESE 15 24 8 13 1013.4 1012.0 0.0
26/01:00pm 37.9 34.4 3.6 12 18.4 WNW 11 20 6 11 1014.2 1012.7 0.0
26/12:30pm 37.1 34.1 4.1 13 17.8 S 9 20 5 11 1014.8 1013.3 0.0
26/12:00pm 37.3 33.6 4.3 13 17.9 WNW 13 24 7 13 1015.4 1013.9 0.0
26/11:30am 36.2 32.3 5.5 15 16.9 WNW 15 22 8 12 1016.1 1014.7 0.0
26/11:00am 35.9 32.4 7.0 17 16.2 NNW 15 24 8 13 1016.6 1015.2 0.0
26/10:30am 34.4 30.2 5.8 17 15.6 NNW 17 30 9 16 1017.1 1015.7 0.0
26/10:00am 33.8 29.7 6.2 18 15.1 NNW 17 22 9 12 1017.6 1016.2 0.0
26/09:30am 32.8 28.9 6.9 20 14.3 N 17 24 9 13 1017.6 1016.2 0.0
26/09:00am 32.0 27.7 7.0 21 13.7 NNW 19 26 10 14 1017.9 1016.4 0.0
26/08:30am 30.5 26.7 7.7 24 12.6 N 17 26 9 14 1017.9 1016.4 0.0
26/08:00am 28.9 25.6 8.0 27 11.5 N 15 19 8 10 1017.6 1016.2 0.0
26/07:30am 27.1 23.7 7.5 29 10.6 NNE 15 22 8 12 1017.4 1016.0 0.0
26/07:00am 24.9 21.9 7.5 33 9.3 NNE 13 17 7 9 1017.2 1015.8 0.0
26/06:30am 22.0 19.9 6.7 37 7.9 NE 7 9 4 5 1016.9 1015.5 0.0
26/06:00am 20.5 18.4 6.8 41 7.0 NE 7 9 4 5 1016.6 1015.2 0.0
26/05:30am 20.2 18.0 6.2 40 7.1 NNE 7 9 4 5 1016.1 1014.7 0.0
26/05:00am 20.5 17.9 6.1 39 7.3 NE 9 11 5 6 1015.9 1014.4 0.0
26/04:30am 21.0 18.5 6.5 39 7.4 NE 9 13 5 7 1015.5 1014.0 0.0
26/04:00am 20.7 18.4 5.5 37 7.6 NNE 7 9 4 5 1015.2 1013.7 0.0
26/03:30am 21.6 18.1 5.5 35 8.1 NE 13 15 7 8 1015.1 1013.6 0.0
26/03:00am 21.8 19.1 5.7 35 8.2 ENE 9 15 5 8 1015.0 1013.5 0.0
26/02:30am 21.7 19.3 5.2 34 8.3 NE 7 11 4 6 1015.0 1013.5 0.0
26/02:00am 22.3 19.7 6.1 35 8.3 NE 9 13 5 7 1015.1 1013.6 0.0
26/01:30am 22.1 19.9 5.1 33 8.5 NE 6 7 3 4 1015.4 1013.9 0.0
26/01:00am 23.3 20.8 4.8 30 9.3 NNE 7 9 4 5 1015.7 1014.2 0.0
26/12:30am 23.3 20.8 4.8 30 9.3 N 7 9 4 5 1016.0 1014.6 0.0
26/12:00am 23.4 20.9 3.9 28 9.7 N 6 7 3 4 1016.4 1015.0 0.0
 
Date/Time
EST
Temp
°C
App
Temp
°C
Dew
Point
Rel
Hum
%
Delta-T
°C
Wind Press
QNH
hPa
Press
MSL
hPa
Rain
since 9 am
mm
Dir
 
Spd
km/h
Gust
km/h
Spd
kts
Gust
kts
25/11:30pm 24.2 21.9 4.6 28 9.9 N 6 7 3 4 1016.5 1015.1 0.0
25/11:00pm 25.4 22.3 5.6 28 10.2 NNE 11 20 6 11 1016.8 1015.4 0.0
25/10:30pm 24.0 22.9 4.9 29 9.7 CALM 0 0 0 0 1016.7 1015.3 0.0
25/10:00pm 24.4 22.1 4.7 28 10.0 N 6 7 3 4 1016.7 1015.3 0.0
25/09:30pm 25.4 22.9 4.0 25 10.8 N 6 7 3 4 1016.6 1015.2 0.0
25/09:00pm 26.4 23.9 4.8 25 11.1 NNW 7 9 4 5 1016.6 1015.2 0.0
25/08:30pm 27.3 24.4 4.4 23 11.8 N 9 11 5 6 1016.5 1015.1 0.0
25/08:00pm 28.4 25.8 4.0 21 12.5 N 7 9 4 5 1016.4 1015.0 0.0
25/07:30pm 30.0 27.0 3.9 19 13.5 N 9 11 5 6 1016.1 1014.7 0.0
25/07:00pm 31.1 28.1 4.0 18 14.1 N 9 11 5 6 1015.9 1014.4 0.0
25/06:30pm 33.5 32.2 4.2 16 15.5 CALM 0 0 0 0 1015.7 1014.2 0.0
25/06:00pm 35.3 32.6 3.8 14 16.8 WSW 7 9 4 5 1015.6 1014.1 0.0
25/05:30pm 35.8 33.2 3.1 13 17.3 W 6 9 3 5 1015.4 1013.9 0.0
25/05:00pm 35.9 33.1 3.2 13 17.3 ESE 7 17 4 9 1015.2 1013.7 0.0
25/04:30pm 36.2 32.7 3.4 13 17.4 S 11 19 6 10 1015.3 1013.8 0.0
25/04:00pm 35.7 32.3 4.1 14 16.9 N 11 19 6 10 1015.4 1013.9 0.0
25/03:30pm 36.2 33.1 3.4 13 17.4 SW 9 19 5 10 1015.6 1014.1 0.0
25/03:00pm 36.2 32.3 3.4 13 17.4 WSW 13 20 7 11 1015.9 1014.4 0.0
25/02:30pm 36.4 33.5 4.6 14 17.2 S 9 17 5 9 1016.3 1014.9 0.0
25/02:00pm 35.6 32.0 5.0 15 16.6 W 13 22 7 12 1017.0 1015.6 0.0
25/01:30pm 35.2 32.1 5.6 16 16.2 NW 11 19 6 10 1017.4 1016.0 0.0
25/01:00pm 35.0 30.9 6.3 17 15.8 N 17 24 9 13 1017.9 1016.4 0.0
25/12:30pm 33.7 30.9 6.9 19 14.9 N 11 28 6 15 1018.6 1017.1 0.0
25/12:00pm 33.5 30.3 6.7 19 14.8 N 13 28 7 15 1019.3 1017.9 0.0
25/11:30am 33.3 30.6 7.3 20 14.5 NNW 11 19 6 10 1019.8 1018.4 0.0
25/11:00am 32.0 28.8 7.0 21 13.7 WNW 13 22 7 12 1020.5 1019.1 0.0
25/10:30am 30.6 26.9 6.5 22 13.1 NNW 15 22 8 12 1020.9 1019.5 0.0
25/10:00am 30.2 26.4 7.4 24 12.5 N 17 26 9 14 1021.2 1019.8 0.0
25/09:30am 29.7 25.9 7.6 25 12.1 NNW 17 24 9 13 1021.4 1020.0 0.0
25/09:00am 28.3 24.1 8.1 28 11.1 N 20 28 11 15 1021.5 1020.1 0.0
25/08:30am 26.8 22.4 7.3 29 10.5 N 20 30 11 16 1021.4 1020.0 0.0
25/08:00am 26.1 22.3 7.7 31 9.9 N 17 20 9 11 1021.4 1020.0 0.0
25/07:30am 25.1 20.7 7.3 32 9.5 NNE 20 30 11 16 1021.0 1019.6 0.0
25/07:00am 23.4 19.9 7.1 35 8.5 NNE 15 19 8 10 1020.8 1019.4 0.0
25/06:30am 21.3 18.8 6.4 38 7.6 NE 9 13 5 7 1020.4 1019.0 0.0
25/06:00am 20.3 17.8 6.6 41 7.0 NNE 9 13 5 7 1020.0 1018.6 0.0
25/05:30am 20.2 17.3 6.5 41 7.0 NNE 11 13 6 7 1019.4 1018.0 0.0
25/05:00am 20.7 17.8 6.3 39 7.3 NNE 11 15 6 8 1018.8 1017.3 0.0
25/04:30am 20.5 17.7 6.8 41 7.0 NNE 11 13 6 7 1018.5 1017.0 0.0
25/04:00am 20.3 17.2 5.5 38 7.4 NE 11 15 6 8 1018.2 1016.7 0.0
25/03:30am 20.3 17.0 4.8 36 7.7 NE 11 13 6 7 1018.0 1016.5 0.0
25/03:00am 20.2 17.2 4.3 35 7.8 NE 9 11 5 6 1017.9 1016.4 0.0
25/02:30am 21.1 17.9 5.1 35 8.0 NNE 11 15 6 8 1017.6 1016.2 0.0
25/02:00am 20.9 18.0 4.5 34 8.1 NNE 9 11 5 6 1017.6 1016.2 0.0
25/01:30am 19.5 16.9 3.2 34 7.8 N 6 7 3 4 1018.0 1016.5 0.0
25/01:00am 20.3 17.6 3.9 34 7.9 N 7 9 4 5 1018.1 1016.6 0.0
25/12:30am 20.9 18.4 3.6 32 8.4 N 6 7 3 4 1018.2 1016.7 0.0
25/12:00am 22.2 19.1 3.8 30 9.0 NNE 9 11 5 6 1018.5 1017.0 0.0
 
Date/Time
EST
Temp
°C
App
Temp
°C
Dew
Point
Rel
Hum
%
Delta-T
°C
Wind Press
QNH
hPa
Press
MSL
hPa
Rain
since 9 am
mm
Dir
 
Spd
km/h
Gust
km/h
Spd
kts
Gust
kts
24/11:30pm 23.7 20.8 4.6 29 9.6 NE 9 13 5 7 1018.7 1017.2 0.0
24/11:00pm 22.8 20.4 5.3 32 8.9 NNE 7 9 4 5 1018.9 1017.4 0.0
24/10:30pm 24.2 21.6 4.0 27 10.1 NE 7 9 4 5 1018.9 1017.4 0.0
24/10:00pm 25.6 22.5 3.5 24 11.0 NE 9 11 5 6 1018.7 1017.2 0.0
24/09:30pm 25.8 23.1 3.7 24 11.1 NE 7 9 4 5 1018.6 1017.1 0.0
24/09:00pm 26.5 24.4 3.7 23 11.5 ENE 4 7 2 4 1018.2 1016.7 0.0
24/08:30pm 28.1 25.4 3.7 21 12.4 NE 7 9 4 5 1018.1 1016.6 0.0
24/08:00pm 29.8 26.0 3.7 19 13.4 NE 13 15 7 8 1017.6 1016.2 0.0
24/07:30pm 29.4 26.0 1.8 17 13.7 ESE 9 11 5 6 1017.4 1016.0 0.0
24/07:00pm 31.3 28.2 1.6 15 14.9 ESE 7 11 4 6 1016.9 1015.5 0.0
24/06:30pm 32.2 28.7 1.3 14 15.5 SE 9 13 5 7 1016.7 1015.3 0.0
24/06:00pm 33.9 30.1 1.6 13 16.4 SE 11 20 6 11 1016.5 1015.1 0.0
24/05:30pm 34.9 31.0 1.3 12 17.1 ESE 11 22 6 12 1016.3 1014.9 0.0
24/05:00pm 34.9 31.0 1.3 12 17.1 E 11 19 6 10 1016.0 1014.6 0.0
24/04:30pm 34.6 30.3 1.1 12 17.0 SE 13 22 7 12 1015.9 1014.4 0.0
24/04:00pm 34.7 29.7 1.1 12 17.1 SE 17 24 9 13 1016.0 1014.6 0.0
24/03:30pm 34.5 30.2 1.0 12 17.0 ESE 13 19 7 10 1016.2 1014.8 0.0
24/03:00pm 34.6 29.9 1.1 12 17.0 E 15 22 8 12 1016.5 1015.1 0.0
24/02:30pm 35.8 33.0 3.1 13 17.3 W 7 15 4 8 1016.9 1015.5 0.0
24/02:00pm 34.7 31.2 3.3 14 16.5 SSE 11 22 6 12 1017.5 1016.1 0.0
24/01:30pm 34.0 30.2 3.7 15 16.0 NNE 13 20 7 11 1018.2 1016.7 0.0
24/01:00pm 33.8 31.1 3.6 15 15.9 W 7 13 4 7 1018.6 1017.1 0.0
24/12:30pm 33.1 30.4 3.9 16 15.4 SE 7 13 4 7 1019.0 1017.5 0.0
24/12:00pm 32.4 27.7 3.4 16 15.1 NNE 17 20 9 11 1019.5 1018.1 0.0
24/11:30am 31.4 27.9 3.4 17 14.5 NE 11 19 6 10 1020.1 1018.7 0.0
24/11:00am 31.8 28.5 4.6 18 14.3 N 11 30 6 16 1020.4 1019.0 0.0
24/10:30am 29.7 25.5 3.6 19 13.4 N 15 22 8 12 1020.9 1019.5 0.0
24/10:00am 28.9 24.7 3.7 20 12.9 NNW 15 24 8 13 1021.1 1019.7 0.0
24/09:30am 28.7 24.7 4.9 22 12.4 N 15 24 8 13 1021.2 1019.8 0.0
24/09:00am 27.8 23.1 6.0 25 11.5 N 20 28 11 15 1021.5 1020.1 0.0
24/08:30am 26.3 21.1 5.3 26 10.9 N 22 30 12 16 1021.3 1019.9 0.0
24/08:00am 25.2 19.7 5.9 29 10.0 N 24 33 13 18 1021.1 1019.7 0.0
24/07:30am 23.8 19.5 5.2 30 9.5 N 17 22 9 12 1021.1 1019.7 0.0
24/07:00am 22.2 18.5 4.7 32 8.7 NNE 13 22 7 12 1020.9 1019.5 0.0
24/06:30am 20.2 17.3 4.7 36 7.6 NE 9 13 5 7 1020.7 1019.3 0.0
24/06:00am 18.6 15.4 5.1 41 6.6 NE 11 13 6 7 1020.3 1018.9 0.0
24/05:30am 17.6 14.7 4.5 42 6.3 NE 9 13 5 7 1019.9 1018.5 0.0
24/05:00am 18.1 15.3 5.0 42 6.4 NNE 9 13 5 7 1019.5 1018.1 0.0
24/04:30am 17.9 15.0 4.8 42 6.4 NE 9 13 5 7 1019.0 1017.5 0.0
24/04:00am 18.8 16.2 6.0 43 6.4 NE 9 11 5 6 1018.6 1017.1 0.0
24/03:30am 18.4 16.1 5.9 44 6.2 ENE 7 9 4 5 1018.5 1017.0 0.0
24/03:00am 18.1 16.9 4.7 41 6.5 CALM 0 7 0 4 1018.3 1016.8 0.0
24/02:30am 19.0 16.8 5.1 40 6.8 NE 6 7 3 4 1018.3 1016.8 0.0
24/02:00am 20.2 17.5 5.4 38 7.4 NE 9 9 5 5 1018.3 1016.8 0.0
24/01:30am 20.7 18.2 4.7 35 7.9 NNE 7 9 4 5 1018.5 1017.0 0.0
24/01:00am 21.5 18.7 5.0 34 8.2 NNE 9 11 5 6 1018.5 1017.0 0.0
24/12:30am 22.3 19.5 5.3 33 8.6 NNE 9 11 5 6 1018.8 1017.3 0.0
24/12:00am 22.3 19.4 4.8 32 8.7 NE 9 11 5 6 1018.8 1017.3 0.0
 
Date/Time
EST
Temp
°C
App
Temp
°C
Dew
Point
Rel
Hum
%
Delta-T
°C
Wind Press
QNH
hPa
Press
MSL
hPa
Rain
since 9 am
mm
Dir
 
Spd
km/h
Gust
km/h
Spd
kts
Gust
kts
23/11:30pm 23.3 20.5 5.2 31 9.2 NE 9 11 5 6 1019.0 1017.5 0.0
23/11:00pm 24.2 21.4 5.1 29 9.7 NE 9 13 5 7 1019.1 1017.7 0.0
23/10:30pm 24.3 20.9 4.1 27 10.1 NE 11 15 6 8 1019.1 1017.7 0.0
23/10:00pm 25.9 22.7 4.9 26 10.8 NE 11 13 6 7 1019.0 1017.5 0.0
23/09:30pm 25.7 22.3 4.2 25 10.9 NE 11 13 6 7 1018.9 1017.4 0.0
23/09:00pm 26.7 23.4 4.5 24 11.3 NE 11 15 6 8 1018.5 1017.0 0.0
23/08:30pm 26.6 23.9 5.5 26 11.0 ENE 9 17 5 9 1018.0 1016.5 0.0
23/08:00pm 26.5 23.8 5.5 26 10.9 ESE 9 11 5 6 1017.4 1016.0 0.0
23/07:30pm 26.9 24.9 4.6 24 11.5 ESE 4 7 2 4 1017.0 1015.6 0.0
23/07:00pm 29.0 27.4 4.5 21 12.7 E 2 6 1 3 1016.7 1015.3 0.0
23/06:30pm 31.0 27.7 4.7 19 13.9 E 11 13 6 7 1016.3 1014.9 0.0
23/06:00pm 32.1 27.7 4.8 18 14.5 ESE 17 20 9 11 1016.1 1014.7 0.0
23/05:30pm 33.0 27.9 3.9 16 15.3 SE 20 30 11 16 1015.9 1014.4 0.0
23/05:00pm 33.3 29.5 4.1 16 15.4 SE 13 20 7 11 1015.6 1014.1 0.0
23/04:30pm 33.5 28.4 3.3 15 15.8 SSE 19 32 10 17 1015.6 1014.1 0.0
23/04:00pm 33.9 29.8 4.6 16 15.7 SSE 15 24 8 13 1015.6 1014.1 0.0
23/03:30pm 33.5 29.2 5.1 17 15.3 S 17 24 9 13 1015.7 1014.2 0.0
23/03:00pm 33.1 28.1 4.8 17 15.1 SE 20 30 11 16 1016.0 1014.6 0.0

Other Formats:

Comma delimited format used in spreadsheet applications
http://www.bom.gov.au/fwo/IDQ60801/IDQ60801.95351.axf

JavaScript Object Notation format (JSON) in row-major order
http://www.bom.gov.au/fwo/IDQ60801/IDQ60801.95351.json